Van Buren Point, New York
Current Conditions -  °F | °C
As of 3:53 PM on Thursday 18 Dec 2014 (Local Time) from KDKK Reporting Station
Overcast Overcast  
Wind Chill: 25°   Ceiling: 2100
Heat Index: 33°   Visibility: 10mi
Dew Point: 26°   Wind: 10mph
Humidity: 75%   Direction: 270°W
Pressure: 30.09"   Gusts: 18mph
Location:  42.45°N, 79.42°W
Report Text: KDKK 182053Z AUTO 27009G16KT 10SM BKN021 OVC027 01/M03 A3009 RMK AO2 SLP197 T00061033 55001
Loading
Personal Weather Stations






























Interactive Weather Map New forecast layout! Learn more

10-Day Weather Forecast

Advertisements
Track Severe Weather on mobile